• Join FlightAware (Why Join?)
  • Login
  • US Flag 
11:37PM EDT


 

Airport Tracker/Info


-or-


 

Live Flight TrackerFlight Track Log ✈ CHQ6336 ✈ 26-Jul-2013 ✈ KDTW - KAZO

Flight Track Log - Related Links

Times and Time Zones

All times are in EDT time to prevent confusion due to time zone crossing. See the CHQ6336 flight status page for this flight to view local times or setup timezone preferences in your user account.

Time Position Orientation Groundspeed Altitude Reporting Facility
EDT Latitude Longitude Course Direction KTS MPH feet Rate Location/Type
10:13PM 42.2033 -83.3722 273° West 159 183 1,300  Level Cleveland Center
10:15PM 42.2028 -83.4731 270° West 229 264 3,600 1,920 Climbing Cleveland Center
10:16PM 42.2337 -83.6924 273° West  Level FlightAware Approximate
10:16PM 42.2108 -83.5744 276° West 230 265 6,300  Level Cleveland Center
10:17PM 42.2380 -83.8084 273° West  Level FlightAware Approximate
10:17PM 42.2189 -83.6617 277° West 255 293 8,300  Level Cleveland Center
10:18PM 42.2422 -83.9244 273° West  Level FlightAware Approximate
10:19PM 42.2463 -84.0405 273° West  Level FlightAware Approximate
10:19PM 42.2392 -83.8402 273° West  Level FlightAware Approximate
10:21PM 42.2453 -84.1944 270° West 334 384 10,000  Level Chicago Center
10:22PM 42.2425 -84.3036 268° West 303 349 10,000  Level Chicago Center
10:23PM 42.2361 -84.4061 265° West 300 345 10,000  Level Chicago Center
10:24PM 42.2278 -84.5225 265° West 313 360 10,000  Level Chicago Center
10:25PM 42.2286 -84.6464 271° West 324 373 10,000 -120 Level Chicago Center
10:26PM 42.2500 -84.6530 270° West  Level FlightAware Approximate
10:27PM 42.2500 -84.7691 270° West  Level FlightAware Approximate
10:27PM 42.2292 -84.7556 270° West 301 346 9,800  Level Chicago Center
10:28PM 42.2319 -84.8581 272° West 253 291 8,300 -1,500 Descending Chicago Center
10:29PM 42.2511 -84.9444 287° West 255 293 6,800 -1,440 Descending Chicago Center
10:30PM 42.2783 -85.0167 297° West 249 287 5,400 -1,440 Descending Chicago Center
10:31PM 42.3117 -85.0956 300° West 243 280 3,900 -1,200 Descending Chicago Center
10:32PM 42.3450 -85.1911 295° West 237 273 3,000 -480 Descending Chicago Center
10:33PM 42.3675 -85.2678 292° West 223 257 3,000  Level Chicago Center
10:34PM 42.3919 -85.3522 291° West 235 270 3,000  Level Chicago Center
10:35PM 42.4150 -85.4358 291° West 237 273 3,000  Level Chicago Center
10:36PM 42.4386 -85.5136 292° West 229 264 3,000  Level Chicago Center
10:37PM 42.4428 -85.5864 274° West 231 266 3,000  Level Chicago Center
10:38PM 42.3931 -85.5900 183° South 189 217 3,000 -120 Level Chicago Center
10:39PM 42.3475 -85.5650 158° South 179 206 2,800 -360 Descending Chicago Center
10:40PM 42.3117 -85.5603 174° South 138 159 2,300 -600 Descending Chicago Center
10:41PM 42.2756 -85.5575 177° South 131 151 1,700 -600 Descending Chicago Center
10:42PM 42.2325 -85.5519 175° South 130 150 1,100 -600 Descending Chicago Center